Clifton Park, NY

3:57 PM EDT on March 27, 2015 (GMT -0400)
Shenendehowa | | Change Station
CLOSE
Current Station
Personal Weather Station
Location: Clifton Park, NY
Elevation: 325 ft
Nearby Weather Stations

Elev 325 ft 42.86 °N, 73.80 °W | Updated 12 minutes ago

Overcast
Overcast
46.8 °F
Feels Like 44 °F
N
5.8
Wind Variable Wind from West

Today
High -- | Low -- °F
--% Chance of Precip.
Yesterday
High -- | Low -- °F
Precip. -- in
6:46 AM 7:15 PM
First Quarter, 55% visible
Pressure 29.73 in
Visibility 10.0 miles
Clouds Few 3900 ft
Scattered Clouds 6000 ft
Mostly Cloudy 17000 ft
Mostly Cloudy 26000 ft
Windchill 44 °F
Dew Point 33 °F
Humidity 59%
Rainfall 0.02 in
Snow Depth Not available.
UV 2 out of 12
Pollen 1.50 out of 12
Air Quality Not available.
Flu Activity Not available.
METAR KALB 271951Z 31013KT 10SM FEW039 SCT060 BKN170 BKN260 07/M02 A2972 RMK AO2 SLP067 SCT V BKN T00721022

More Conditions Fewer Conditions

Pressure 29.73 in
Visibility 10.0 miles
Clouds Few 3900 ft
Scattered Clouds 6000 ft
Mostly Cloudy 17000 ft
Mostly Cloudy 26000 ft
Windchill 44 °F
Dew Point 33 °F
Humidity 59%
Rainfall 0.02 in
Snow Depth Not available.
UV 2 out of 12
Pollen 1.50 out of 12
Air Quality Not available.
Flu Activity Not available.
METAR KALB 271951Z 31013KT 10SM FEW039 SCT060 BKN170 BKN260 07/M02 A2972 RMK AO2 SLP067 SCT V BKN T00721022

More Conditions Fewer Conditions

10-Day Weather Forecast

Almanac

Astronomy

Mar. 27, 2015 Rise Set
Actual Time
Civil Twilight
Nautical Twilight
Astronomical Twilight
Moon
Length of Visible Light
Length of Day
Tomorrow will be .
, % of the Moon is Illuminated

Today's Extremes

State Highs State Lows

Community

WunderPhotos

Upload Photos

1,808,799 photos uploaded!

WunderBlogs® & News

Nearby

Air Quality

  Air Quality AQ Index Pollutant
Not available.

Snow Depth

Station Depth Elevation

Earthquake Activity

City Distance Mag. Time & Date
Minimum magnitude displayed is 2.5.

Coastal Water Temperatures

Place Temperature

Stations

Nearby Weather Stations

Station Location Temp. Windchill Dew Point Humidity Wind Precip. Elev Updated Type